createdAt,value
2018-06-02T00:00:00.466Z,4.80
2018-06-02T00:02:26.719Z,4.30
2018-06-02T00:04:52.982Z,4.50
2018-06-02T00:07:19.218Z,4.70
2018-06-02T00:09:45.464Z,4.67
2018-06-02T00:12:11.740Z,5.20
2018-06-02T00:14:37.999Z,4.53
2018-06-02T00:17:04.241Z,4.50
2018-06-02T00:19:30.532Z,4.53
2018-06-02T00:21:57.585Z,3.93
2018-06-02T00:24:23.828Z,4.30
2018-06-02T00:26:50.339Z,4.27
2018-06-02T00:29:16.603Z,3.67
2018-06-02T00:31:42.859Z,4.33
2018-06-02T00:34:09.128Z,4.20
2018-06-02T00:36:35.377Z,4.53
2018-06-02T00:39:01.628Z,5.20
2018-06-02T00:41:27.957Z,5.17
2018-06-02T00:43:54.210Z,5.07
2018-06-02T00:46:20.506Z,4.30
2018-06-02T00:48:46.796Z,5.93
2018-06-02T00:51:13.082Z,4.63
2018-06-02T00:53:39.323Z,4.83
2018-06-02T00:56:05.611Z,4.30
2018-06-02T00:58:31.882Z,5.17
2018-06-02T01:00:58.171Z,4.37
2018-06-02T01:03:24.443Z,4.37
2018-06-02T01:05:50.691Z,4.00
2018-06-02T01:08:16.962Z,4.77
2018-06-02T01:10:43.241Z,4.80
2018-06-02T01:13:09.493Z,5.03
2018-06-02T01:15:35.751Z,5.07
2018-06-02T01:18:02.007Z,4.50
2018-06-02T01:20:28.243Z,4.30
2018-06-02T01:22:54.496Z,4.47
2018-06-02T01:25:20.788Z,6.60
2018-06-02T01:27:47.058Z,5.10
2018-06-02T01:30:13.310Z,4.03
2018-06-02T01:32:39.574Z,5.53
2018-06-02T01:35:05.826Z,3.87
2018-06-02T01:37:32.066Z,4.40
2018-06-02T01:39:58.393Z,4.33
2018-06-02T01:42:24.806Z,4.63
2018-06-02T01:44:51.058Z,3.87
2018-06-02T01:47:17.326Z,4.57
2018-06-02T01:49:43.579Z,4.90
2018-06-02T01:52:09.816Z,4.13
2018-06-02T01:54:36.142Z,4.33
2018-06-02T01:57:02.390Z,6.07
2018-06-02T01:59:28.698Z,4.83
2018-06-02T02:01:54.970Z,9.50
2018-06-02T02:04:21.226Z,5.93
2018-06-02T02:06:47.475Z,4.83
2018-06-02T02:09:13.747Z,6.20
2018-06-02T02:11:40.006Z,8.10
2018-06-02T02:14:06.276Z,4.77
2018-06-02T02:16:32.552Z,9.80
2018-06-02T02:18:58.826Z,8.20
2018-06-02T02:21:25.067Z,15.50
2018-06-02T02:23:51.350Z,10.40
2018-06-02T02:26:17.629Z,7.17
2018-06-02T02:28:43.932Z,10.80
2018-06-02T02:31:10.236Z,15.30
2018-06-02T02:33:36.480Z,6.43
2018-06-02T02:36:02.723Z,7.73
2018-06-02T02:38:29.003Z,6.83
2018-06-02T02:40:55.264Z,9.20
2018-06-02T02:43:21.519Z,10.80
2018-06-02T02:45:47.818Z,6.77
2018-06-02T02:48:14.063Z,7.13
2018-06-02T02:50:40.387Z,11.23
2018-06-02T02:53:06.752Z,6.17
2018-06-02T02:55:33.007Z,8.40
2018-06-02T02:57:59.244Z,9.70
2018-06-02T03:00:25.515Z,5.27
2018-06-02T03:02:51.739Z,7.33
2018-06-02T03:05:18.017Z,5.83
2018-06-02T03:07:44.292Z,4.97
2018-06-02T03:10:10.535Z,5.30
2018-06-02T03:12:36.775Z,5.67
2018-06-02T03:15:03.071Z,8.97
2018-06-02T03:17:29.309Z,7.40
2018-06-02T03:19:55.557Z,10.17
2018-06-02T03:22:21.854Z,6.10
2018-06-02T03:24:48.098Z,5.27
2018-06-02T03:27:14.343Z,7.03
2018-06-02T03:29:40.628Z,5.20
2018-06-02T03:32:06.887Z,6.10
2018-06-02T03:34:33.124Z,5.03
2018-06-02T03:36:59.394Z,4.50
2018-06-02T03:39:25.638Z,5.20
2018-06-02T03:41:51.966Z,10.13
2018-06-02T03:44:18.238Z,6.30
2018-06-02T03:46:44.471Z,5.53
2018-06-02T03:49:10.706Z,7.63
2018-06-02T03:51:36.986Z,5.03
2018-06-02T03:54:03.243Z,4.93
2018-06-02T03:56:29.483Z,7.57
2018-06-02T03:58:55.768Z,4.80
2018-06-02T04:01:22.006Z,9.43
2018-06-02T04:03:48.282Z,7.00
2018-06-02T04:06:14.547Z,7.10
2018-06-02T04:08:40.781Z,5.17
2018-06-02T04:11:07.013Z,4.37
2018-06-02T04:13:33.298Z,6.10
2018-06-02T04:15:59.536Z,6.60
2018-06-02T04:18:25.815Z,4.47
2018-06-02T04:20:52.103Z,5.67
2018-06-02T04:23:18.374Z,4.63
2018-06-02T04:25:44.611Z,5.47
2018-06-02T04:28:10.906Z,7.30
2018-06-02T04:30:37.175Z,4.47
2018-06-02T04:33:03.419Z,7.67
2018-06-02T04:35:29.695Z,4.90
2018-06-02T04:37:55.935Z,4.53
2018-06-02T04:40:22.203Z,4.63
2018-06-02T04:42:48.475Z,5.90
2018-06-02T04:45:14.731Z,7.90
2018-06-02T04:47:41.008Z,6.50
2018-06-02T04:50:07.300Z,4.93
2018-06-02T04:52:33.551Z,4.70
2018-06-02T04:54:59.813Z,5.33
2018-06-02T04:57:26.077Z,5.27
2018-06-02T04:59:52.320Z,5.00
2018-06-02T05:02:18.561Z,5.90
2018-06-02T05:04:44.856Z,6.90
2018-06-02T05:07:11.095Z,4.97
2018-06-02T05:09:37.334Z,6.93
2018-06-02T05:12:03.599Z,8.30
2018-06-02T05:14:29.873Z,4.47
2018-06-02T05:16:56.110Z,6.70
2018-06-02T05:19:22.383Z,4.50
2018-06-02T05:21:48.623Z,5.83
2018-06-02T05:24:14.864Z,4.83
2018-06-02T05:26:41.146Z,4.07
2018-06-02T05:29:07.441Z,4.03
2018-06-02T05:31:33.695Z,6.27
2018-06-02T05:34:00.079Z,4.97
2018-06-02T05:36:26.415Z,4.47
2018-06-02T05:38:52.651Z,3.70
2018-06-02T05:41:18.962Z,3.60
2018-06-02T05:43:45.260Z,3.77
2018-06-02T05:46:11.491Z,4.27
2018-06-02T05:48:37.797Z,4.70
2018-06-02T05:51:04.100Z,9.07
2018-06-02T05:53:30.357Z,4.57
2018-06-02T05:55:56.639Z,6.00
2018-06-02T05:58:22.880Z,3.00
2018-06-02T06:00:49.124Z,3.30
2018-06-02T06:03:15.587Z,3.43
2018-06-02T06:05:41.835Z,4.20
2018-06-02T06:08:08.185Z,3.50
2018-06-02T06:10:34.466Z,3.10
2018-06-02T06:13:00.699Z,3.83
2018-06-02T06:15:26.969Z,3.30
2018-06-02T06:17:53.233Z,3.57
2018-06-02T06:20:19.495Z,5.60
2018-06-02T06:22:45.736Z,2.73
2018-06-02T06:25:11.999Z,4.00
2018-06-02T06:27:38.248Z,6.50
2018-06-02T06:30:04.519Z,4.03
2018-06-02T06:32:30.839Z,2.87
2018-06-02T06:34:57.079Z,5.00
2018-06-02T06:37:23.385Z,3.00
2018-06-02T06:39:49.646Z,2.67
2018-06-02T06:42:15.882Z,2.90
2018-06-02T06:44:42.228Z,3.03
2018-06-02T06:47:08.515Z,3.30
2018-06-02T06:49:34.828Z,3.47
2018-06-02T06:52:01.091Z,3.47
2018-06-02T06:54:27.378Z,2.90
2018-06-02T06:56:53.965Z,2.93
2018-06-02T06:59:20.204Z,4.60
2018-06-02T07:01:46.475Z,2.83
2018-06-02T07:04:13.863Z,3.33
2018-06-02T07:06:40.123Z,3.00
2018-06-02T07:09:06.463Z,2.93
2018-06-02T07:11:32.703Z,4.73
2018-06-02T07:13:58.948Z,3.47
2018-06-02T07:16:25.245Z,4.20
2018-06-02T07:18:51.482Z,3.43
2018-06-02T07:21:17.744Z,3.77
2018-06-02T07:23:44.012Z,3.57
2018-06-02T07:26:10.360Z,3.67
2018-06-02T07:28:36.626Z,3.40
2018-06-02T07:31:02.907Z,3.83
2018-06-02T07:33:29.152Z,4.27
2018-06-02T07:35:55.398Z,3.33
2018-06-02T07:38:21.670Z,5.17
2018-06-02T07:40:47.944Z,3.40
2018-06-02T07:43:14.193Z,3.60
2018-06-02T07:45:40.478Z,3.93
2018-06-02T07:48:06.725Z,3.10
2018-06-02T07:50:32.959Z,3.63
2018-06-02T07:52:59.259Z,3.30
2018-06-02T07:55:25.482Z,3.60
2018-06-02T07:57:51.731Z,5.90
2018-06-02T08:00:17.998Z,4.00
2018-06-02T08:02:44.236Z,3.77
2018-06-02T08:05:10.466Z,4.03
2018-06-02T08:07:36.747Z,4.50
2018-06-02T08:10:03.013Z,6.97
2018-06-02T08:12:29.251Z,4.87
2018-06-02T08:14:55.552Z,4.63
2018-06-02T08:17:21.798Z,4.10
2018-06-02T08:19:48.048Z,3.67
2018-06-02T08:22:14.322Z,4.23
2018-06-02T08:24:40.600Z,3.93
2018-06-02T08:27:06.843Z,4.07
2018-06-02T08:29:33.119Z,7.57
2018-06-02T08:31:59.359Z,4.50
2018-06-02T08:34:25.604Z,4.30
2018-06-02T08:36:51.867Z,4.53
2018-06-02T08:39:18.147Z,5.57
2018-06-02T08:41:44.396Z,4.20
2018-06-02T08:44:10.717Z,3.97
2018-06-02T08:46:36.958Z,4.37
2018-06-02T08:49:03.191Z,3.97
2018-06-02T08:51:29.476Z,4.43
2018-06-02T08:53:55.735Z,4.37
2018-06-02T08:56:22.009Z,4.23
2018-06-02T08:58:48.304Z,4.20
2018-06-02T09:01:14.543Z,3.53
2018-06-02T09:03:40.791Z,3.37
2018-06-02T09:06:07.069Z,4.13
2018-06-02T09:08:33.314Z,3.27
2018-06-02T09:10:59.543Z,4.20
2018-06-02T09:13:25.815Z,6.50
2018-06-02T09:15:52.077Z,7.80
2018-06-02T09:18:18.327Z,6.47
2018-06-02T09:20:44.611Z,10.43
2018-06-02T09:23:10.852Z,5.47
2018-06-02T09:25:37.113Z,5.60
2018-06-02T09:28:03.441Z,5.57
2018-06-02T09:30:29.702Z,5.80
2018-06-02T09:32:55.938Z,9.07
2018-06-02T09:35:22.222Z,5.27
2018-06-02T09:37:48.466Z,5.17
2018-06-02T09:40:14.747Z,4.37
2018-06-02T09:42:41.018Z,4.17
2018-06-02T09:45:07.263Z,4.67
2018-06-02T09:47:33.520Z,4.07
2018-06-02T09:49:59.797Z,4.30
2018-06-02T09:52:26.026Z,4.30
2018-06-02T09:54:52.263Z,4.77
2018-06-02T09:57:18.523Z,4.60
2018-06-02T09:59:44.784Z,4.53
2018-06-02T10:02:11.015Z,12.10
2018-06-02T10:04:37.325Z,4.67
2018-06-02T10:07:03.625Z,4.47
2018-06-02T10:09:29.879Z,4.10
2018-06-02T10:11:56.173Z,3.77
2018-06-02T10:14:22.407Z,3.57
2018-06-02T10:16:48.703Z,4.03
2018-06-02T10:19:14.969Z,4.20
2018-06-02T10:21:41.212Z,13.33
2018-06-02T10:24:07.470Z,3.90
2018-06-02T10:26:33.742Z,3.90
2018-06-02T10:28:59.996Z,4.77
2018-06-02T10:31:26.250Z,4.50
2018-06-02T10:33:52.606Z,3.57
2018-06-02T10:36:18.846Z,3.50
2018-06-02T10:38:45.143Z,3.73
2018-06-02T10:41:11.407Z,3.80
2018-06-02T10:43:37.664Z,3.23
2018-06-02T10:46:03.894Z,5.43
2018-06-02T10:48:30.193Z,3.40
2018-06-02T10:50:56.439Z,3.23
2018-06-02T10:53:22.675Z,3.20
2018-06-02T10:55:48.950Z,4.37
2018-06-02T10:58:15.199Z,3.70
2018-06-02T11:00:41.430Z,3.40
2018-06-02T11:03:07.715Z,5.63
2018-06-02T11:05:33.958Z,5.87
2018-06-02T11:08:00.209Z,3.67
2018-06-02T11:10:26.484Z,3.63
2018-06-02T11:12:52.767Z,3.57
2018-06-02T11:15:18.990Z,3.40
2018-06-02T11:17:45.282Z,4.07
2018-06-02T11:20:11.523Z,3.87
2018-06-02T11:22:37.760Z,4.97
2018-06-02T11:25:04.044Z,3.90
2018-06-02T11:27:30.287Z,4.90
2018-06-02T11:29:56.531Z,4.23
2018-06-02T11:32:22.798Z,4.27
2018-06-02T11:34:49.031Z,4.13
2018-06-02T11:37:15.272Z,4.50
2018-06-02T11:39:41.606Z,3.83
2018-06-02T11:42:07.863Z,3.90
2018-06-02T11:44:34.095Z,3.90
2018-06-02T11:47:00.368Z,4.43
2018-06-02T11:49:26.610Z,4.27
2018-06-02T11:51:52.838Z,3.97
2018-06-02T11:54:19.107Z,3.77
2018-06-02T11:56:45.340Z,4.50
2018-06-02T11:59:11.579Z,4.10
2018-06-02T12:01:37.856Z,4.40
2018-06-02T12:04:04.126Z,4.33
2018-06-02T12:06:30.419Z,4.20
2018-06-02T12:08:56.694Z,4.40
2018-06-02T12:11:22.946Z,4.00
2018-06-02T12:13:49.253Z,4.30
2018-06-02T12:16:15.507Z,5.70
2018-06-02T12:18:41.734Z,9.73
2018-06-02T12:21:07.975Z,6.37
2018-06-02T12:23:34.262Z,7.27
2018-06-02T12:26:00.499Z,6.67
2018-06-02T12:28:26.805Z,6.87
2018-06-02T12:30:53.052Z,7.70
2018-06-02T12:33:19.294Z,7.43
2018-06-02T12:35:45.582Z,7.33
2018-06-02T12:38:11.856Z,6.70
2018-06-02T12:40:38.101Z,8.00
2018-06-02T12:43:04.366Z,7.30
2018-06-02T12:45:30.637Z,7.97
2018-06-02T12:47:56.886Z,6.17
2018-06-02T12:50:23.143Z,7.33
2018-06-02T12:52:49.411Z,6.67
2018-06-02T12:55:15.675Z,5.40
2018-06-02T12:57:41.906Z,5.97
2018-06-02T13:00:08.196Z,6.30
2018-06-02T13:02:34.444Z,5.47
2018-06-02T13:05:00.691Z,5.13
2018-06-02T13:07:26.981Z,5.00
2018-06-02T13:09:53.217Z,5.00
2018-06-02T13:12:19.447Z,5.17
2018-06-02T13:14:45.715Z,14.63
2018-06-02T13:17:11.952Z,9.70
2018-06-02T13:19:38.179Z,6.30
2018-06-02T13:22:04.431Z,5.57
2018-06-02T13:24:30.692Z,4.43
2018-06-02T13:26:56.943Z,4.53
2018-06-02T13:29:23.227Z,4.93
2018-06-02T13:31:49.473Z,4.53
2018-06-02T13:34:15.702Z,4.13
2018-06-02T13:36:41.995Z,8.47
2018-06-02T13:39:08.231Z,3.87
2018-06-02T13:41:34.487Z,3.60
2018-06-02T13:44:00.768Z,4.03
2018-06-02T13:46:27.043Z,5.68
2018-06-02T13:48:53.299Z,3.50
2018-06-02T13:51:19.565Z,3.53
2018-06-02T13:53:45.807Z,3.62
2018-06-02T13:56:12.034Z,2.93
2018-06-02T13:58:38.306Z,3.12
2018-06-02T14:01:04.534Z,2.93
2018-06-02T14:03:30.768Z,4.83
2018-06-02T14:05:57.070Z,4.73
2018-06-02T14:08:23.327Z,3.10
2018-06-02T14:10:49.563Z,2.70
2018-06-02T14:13:15.817Z,2.90
2018-06-02T14:15:42.041Z,2.80
2018-06-02T14:18:08.286Z,3.10
2018-06-02T14:20:34.535Z,2.70
2018-06-02T14:23:00.766Z,2.73
2018-06-02T14:25:27.015Z,4.70
2018-06-02T14:27:53.278Z,3.13
2018-06-02T14:30:19.501Z,4.83
2018-06-02T14:32:45.750Z,3.57
2018-06-02T14:35:12.020Z,4.13
2018-06-02T14:37:38.273Z,4.20
2018-06-02T14:40:04.514Z,3.77
2018-06-02T14:42:30.775Z,3.00
2018-06-02T14:44:57.035Z,3.67
2018-06-02T14:47:23.287Z,3.20
2018-06-02T14:49:49.555Z,3.03
2018-06-02T14:52:15.793Z,3.40
2018-06-02T14:54:42.035Z,2.90
2018-06-02T14:57:08.499Z,3.17
2018-06-02T14:59:34.954Z,2.90
2018-06-02T15:02:01.261Z,3.00
2018-06-02T15:04:27.518Z,2.80
2018-06-02T15:06:53.757Z,3.22
2018-06-02T15:09:19.980Z,3.40
2018-06-02T15:11:46.238Z,3.15
2018-06-02T15:14:12.454Z,2.60
2018-06-02T15:16:38.670Z,2.55
2018-06-02T15:19:04.974Z,2.45
2018-06-02T15:21:31.202Z,2.47
2018-06-02T15:23:57.430Z,2.97
2018-06-02T15:26:23.913Z,2.65
2018-06-02T15:28:50.171Z,3.25
2018-06-02T15:31:16.591Z,2.65
2018-06-02T15:33:42.823Z,3.70
2018-06-02T15:36:09.059Z,3.40
2018-06-02T15:38:35.286Z,3.15
2018-06-02T15:41:01.574Z,3.10
2018-06-02T15:43:27.942Z,3.42
2018-06-02T15:45:54.216Z,2.97
2018-06-02T15:48:20.507Z,3.53
2018-06-02T15:50:46.760Z,3.00
2018-06-02T15:53:13.002Z,2.83
2018-06-02T15:55:39.290Z,4.90
2018-06-02T15:58:05.523Z,8.67
2018-06-02T16:00:31.751Z,4.23
2018-06-02T16:02:58.022Z,4.83
2018-06-02T16:05:24.242Z,4.17
2018-06-02T16:07:50.503Z,6.07
2018-06-02T16:10:16.758Z,3.63
2018-06-02T16:12:43.005Z,3.70
2018-06-02T16:15:09.387Z,4.13
2018-06-02T16:17:35.672Z,4.17
2018-06-02T16:20:01.904Z,3.43
2018-06-02T16:22:28.121Z,3.70
2018-06-02T16:24:54.538Z,5.43
2018-06-02T16:27:20.811Z,5.80
2018-06-02T16:29:47.039Z,4.10
2018-06-02T16:32:13.321Z,6.23
2018-06-02T16:34:39.566Z,5.37
2018-06-02T16:37:05.791Z,4.03
2018-06-02T16:39:32.040Z,5.57
2018-06-02T16:41:58.272Z,4.10
2018-06-02T16:44:24.511Z,4.53
2018-06-02T16:46:50.797Z,6.67
2018-06-02T16:49:17.011Z,4.33
2018-06-02T16:51:43.230Z,4.37
2018-06-02T16:54:09.482Z,4.73
2018-06-02T16:56:35.707Z,4.03
2018-06-02T16:59:01.942Z,3.90
2018-06-02T17:01:28.207Z,26.10
2018-06-02T17:03:54.434Z,4.80
2018-06-02T17:06:20.709Z,5.77
2018-06-02T17:08:46.927Z,6.43
2018-06-02T17:11:13.238Z,4.17
2018-06-02T17:13:39.466Z,5.30
2018-06-02T17:16:05.722Z,4.47
2018-06-02T17:18:31.946Z,4.40
2018-06-02T17:20:58.202Z,4.60
2018-06-02T17:23:24.467Z,4.33
2018-06-02T17:25:50.712Z,4.90
2018-06-02T17:28:16.947Z,4.13
2018-06-02T17:30:43.210Z,4.93
2018-06-02T17:33:09.469Z,4.30
2018-06-02T17:35:35.690Z,4.50
2018-06-02T17:38:01.984Z,4.23
2018-06-02T17:40:28.219Z,4.73
2018-06-02T17:42:54.461Z,5.13
2018-06-02T17:45:20.729Z,5.67
2018-06-02T17:47:46.973Z,5.97
2018-06-02T17:50:13.215Z,5.63
2018-06-02T17:52:39.492Z,6.13
2018-06-02T17:55:05.785Z,8.50
2018-06-02T17:57:32.040Z,6.10
2018-06-02T17:59:58.338Z,5.20
2018-06-02T18:02:24.568Z,7.30
2018-06-02T18:04:50.802Z,5.53
2018-06-02T18:07:17.067Z,5.05
2018-06-02T18:09:43.307Z,5.30
2018-06-02T18:12:09.567Z,5.70
2018-06-02T18:14:35.830Z,6.40
2018-06-02T18:17:02.069Z,4.60
2018-06-02T18:19:28.315Z,5.60
2018-06-02T18:21:54.611Z,6.10
2018-06-02T18:24:20.858Z,5.57
2018-06-02T18:26:47.092Z,6.03
2018-06-02T18:29:13.371Z,5.47
2018-06-02T18:31:39.610Z,7.20
2018-06-02T18:34:05.847Z,12.47
2018-06-02T18:36:32.136Z,7.77
2018-06-02T18:38:58.376Z,10.57
2018-06-02T18:41:24.611Z,12.23
2018-06-02T18:43:50.886Z,9.07
2018-06-02T18:46:17.119Z,5.80
2018-06-02T18:48:43.356Z,4.90
2018-06-02T18:51:09.642Z,4.43
2018-06-02T18:53:35.956Z,5.13
2018-06-02T18:56:02.203Z,7.13
2018-06-02T18:58:28.554Z,6.13
2018-06-02T19:00:54.920Z,4.47
2018-06-02T19:03:21.142Z,5.30
2018-06-02T19:05:47.429Z,5.50
2018-06-02T19:08:13.706Z,5.53
2018-06-02T19:10:40.011Z,7.97
2018-06-02T19:13:06.278Z,7.07
2018-06-02T19:15:32.519Z,6.10
2018-06-02T19:17:58.754Z,5.27
2018-06-02T19:20:25.106Z,5.30
2018-06-02T19:22:51.374Z,10.27
2018-06-02T19:25:17.619Z,7.43
2018-06-02T19:27:43.894Z,5.93
2018-06-02T19:30:10.166Z,5.30
2018-06-02T19:32:36.412Z,5.47
2018-06-02T19:35:02.751Z,6.40
2018-06-02T19:37:28.996Z,9.73
2018-06-02T19:39:55.290Z,17.03
2018-06-02T19:42:21.566Z,13.20
2018-06-02T19:44:47.808Z,10.43
2018-06-02T19:47:14.058Z,7.57
2018-06-02T19:49:40.418Z,7.33
2018-06-02T19:52:06.671Z,5.40
2018-06-02T19:54:32.915Z,5.97
2018-06-02T19:56:59.200Z,6.13
2018-06-02T19:59:25.490Z,7.73
2018-06-02T20:01:51.766Z,6.10
2018-06-02T20:04:18.051Z,6.53
2018-06-02T20:06:44.347Z,6.33
2018-06-02T20:09:10.619Z,7.50
2018-06-02T20:11:36.890Z,5.63
2018-06-02T20:14:03.138Z,6.00
2018-06-02T20:16:29.390Z,6.53
2018-06-02T20:18:55.679Z,6.07
2018-06-02T20:21:22.198Z,7.23
2018-06-02T20:23:48.599Z,6.30
2018-06-02T20:26:14.882Z,9.10
2018-06-02T20:28:41.145Z,8.23
2018-06-02T20:31:07.378Z,8.70
2018-06-02T20:33:33.918Z,11.80
2018-06-02T20:36:00.138Z,8.70
2018-06-02T20:38:26.571Z,10.07
2018-06-02T20:40:52.913Z,6.80
2018-06-02T20:43:19.302Z,9.53
2018-06-02T20:45:45.572Z,7.60
2018-06-02T20:48:11.870Z,6.83
2018-06-02T20:50:38.172Z,22.90
2018-06-02T20:53:04.423Z,13.03
2018-06-02T20:55:30.791Z,8.20
2018-06-02T20:57:57.048Z,14.10
2018-06-02T21:00:23.295Z,10.77
2018-06-02T21:02:50.036Z,7.63
2018-06-02T21:05:16.561Z,9.13
2018-06-02T21:07:43.477Z,8.43
2018-06-02T21:10:09.786Z,10.10
2018-06-02T21:12:36.233Z,11.43
2018-06-02T21:15:02.536Z,14.33
2018-06-02T21:17:28.810Z,16.43
2018-06-02T21:19:55.092Z,12.37
2018-06-02T21:22:21.387Z,9.37
2018-06-02T21:24:48.247Z,12.77
2018-06-02T21:27:14.550Z,13.60
2018-06-02T21:29:40.953Z,16.73
2018-06-02T21:32:07.271Z,11.93
2018-06-02T21:34:33.703Z,9.30
2018-06-02T21:36:59.969Z,10.47
2018-06-02T21:39:26.407Z,10.13
2018-06-02T21:41:52.719Z,9.57
2018-06-02T21:44:18.983Z,8.07
2018-06-02T21:46:45.665Z,9.00
2018-06-02T21:49:11.961Z,10.90
2018-06-02T21:51:38.391Z,9.07
2018-06-02T21:54:04.759Z,8.40
2018-06-02T21:56:30.987Z,8.33
2018-06-02T21:58:57.395Z,9.63
2018-06-02T22:01:23.699Z,10.43
2018-06-02T22:03:50.152Z,11.53
2018-06-02T22:06:16.450Z,11.80
2018-06-02T22:08:43.003Z,10.70
2018-06-02T22:11:09.319Z,11.47
2018-06-02T22:13:35.723Z,10.90
2018-06-02T22:16:02.108Z,10.43
2018-06-02T22:18:28.379Z,13.87
2018-06-02T22:20:54.862Z,10.30
2018-06-02T22:23:21.118Z,11.70
2018-06-02T22:25:47.367Z,13.20
2018-06-02T22:28:13.880Z,10.87
2018-06-02T22:30:40.226Z,11.53
2018-06-02T22:33:06.564Z,12.67
2018-06-02T22:35:32.831Z,12.30
2018-06-02T22:37:59.302Z,13.37
2018-06-02T22:40:25.608Z,16.13
2018-06-02T22:42:52.051Z,14.67
2018-06-02T22:45:18.329Z,16.53
2018-06-02T22:47:44.668Z,12.93
2018-06-02T22:50:10.905Z,13.60
2018-06-02T22:52:37.219Z,16.07
2018-06-02T22:55:03.528Z,11.00
2018-06-02T22:57:29.990Z,10.90
2018-06-02T22:59:56.541Z,12.17
2018-06-02T23:02:22.865Z,14.00
2018-06-02T23:04:49.402Z,11.87
2018-06-02T23:07:15.713Z,10.77
2018-06-02T23:09:42.035Z,11.70
2018-06-02T23:12:08.681Z,11.47
2018-06-02T23:14:35.083Z,12.83
2018-06-02T23:17:01.335Z,11.97
2018-06-02T23:19:27.578Z,11.07
2018-06-02T23:21:53.839Z,11.23
2018-06-02T23:24:20.066Z,11.67
2018-06-02T23:26:46.353Z,14.53
2018-06-02T23:29:12.591Z,12.27
2018-06-02T23:31:38.830Z,12.77
2018-06-02T23:34:05.151Z,15.90
2018-06-02T23:36:31.373Z,16.47
2018-06-02T23:38:57.645Z,16.83
2018-06-02T23:41:23.889Z,21.30
2018-06-02T23:43:50.145Z,17.23
2018-06-02T23:46:16.398Z,20.43
2018-06-02T23:48:42.643Z,15.77
2018-06-02T23:51:08.926Z,16.67
2018-06-02T23:53:35.174Z,17.33
2018-06-02T23:56:01.427Z,18.77
2018-06-02T23:58:27.698Z,18.27
